Terminal Aerodrome Forecast
Issued by NWS

Home | Current Version | Previous Version | Text Only | Print | Product List | Glossary On
Versions: 1 2 3 4 5 6 7 8 9 10 11 12 13 14 15 16 17
129
FTUS42 KTAE 232325
TAFVLD
TAF
KVLD 232325Z 2400/2424 06005KT P6SM BKN070
     FM240800 VRB03KT 4SM BR SCT003
     FM241000 VRB03KT 1SM BR BKN002
     FM241400 12005KT P6SM FEW030=

USA.gov is the U.S. government's official web portal to all federal, state and local government web resources and services.